Thunder radar more information blitzortung!


Radar de pluja more information rain snow radar


Visita la nostra xarxa de llocs de meteo:

Template documentation
and downloads

And another site



No particular awareness of the weather is required.    There are no Weather-warnings

Pagina Historial Weather Underground text

Diari Resum Novembre 30, 2017 Unitats:  Tant    Imperial   Mètric
« Previous Dia
SegĂźent Dia »
Diari Setmana Mensual Anual Personalitzada
  Maxima: Minima: Media:
Temperatura: 53.6 °F /  12.0 °C 33.1 °F /  0.6 °C 41.5 °F /  5.3 °C
Punt de rosada: 32.2 °F /  0.1 °C 14 °F /  -10.0 °C 24.1 °F /  -4.4 °C
Humitat: 70 % 32 % 52 %
Wind Speed: 9.2 mph /  14.8 km/h - 2 mph /  3.2 km/h
RĂ fegues de vent: 9.2 mph /  14.8 km/h - -
Vent:- - SSW
Pression baro: 30 in /  1014.8 hPa 29.8 in /  1008.0 hPa -
Precipitacions: 0 in /  0.0 mm    
Historical Graphs
 
 
Dades de taula per Novembre 30, 2017
Temps Temperatura Punt de rosada Pression baro Vent Wind Speed RĂ fegues de vent Humitat Rainfall Rate (Hourly)
00:00 37.8 °F /  3.2 °C 28 °F /  -2.2 °C 29.8 in /  1008.0 hPa SW 1.6 mph /  2.6 km/h 1.6 mph /  2.6 km/h 68 % 0 in /  0.0 mm
00:05 37.6 °F /  3.1 °C 28 °F /  -2.2 °C 29.8 in /  1008.0 hPa SW 2.9 mph /  4.7 km/h 2.9 mph /  4.7 km/h 68 % 0 in /  0.0 mm
00:20 37.2 °F /  2.9 °C 27.7 °F /  -2.4 °C 29.8 in /  1008.0 hPa SW 1 mph /  1.6 km/h 2 mph /  3.2 km/h 68 % 0 in /  0.0 mm
00:25 37.2 °F /  2.9 °C 27.7 °F /  -2.4 °C 29.8 in /  1008.0 hPa West 1 mph /  1.6 km/h   68 % 0 in /  0.0 mm
00:30 37.2 °F /  2.9 °C 28 °F /  -2.2 °C 29.8 in /  1008.0 hPa North 1 mph /  1.6 km/h 2 mph /  3.2 km/h 69 % 0 in /  0.0 mm
00:35 37.2 °F /  2.9 °C 28 °F /  -2.2 °C 29.8 in /  1008.0 hPa NE 1 mph /  1.6 km/h 2 mph /  3.2 km/h 69 % 0 in /  0.0 mm
00:40 37 °F /  2.8 °C 28.2 °F /  -2.1 °C 29.8 in /  1008.0 hPa NE 2 mph /  3.2 km/h 2 mph /  3.2 km/h 70 % 0 in /  0.0 mm
00:45 37 °F /  2.8 °C 28.2 °F /  -2.1 °C 29.8 in /  1008.0 hPa NE 1 mph /  1.6 km/h 1 mph /  1.6 km/h 70 % 0 in /  0.0 mm
00:50 36.7 °F /  2.6 °C 27.9 °F /  -2.3 °C 29.8 in /  1009.0 hPa North 1 mph /  1.6 km/h 2 mph /  3.2 km/h 70 % 0 in /  0.0 mm
00:55 36.7 °F /  2.6 °C 27.9 °F /  -2.3 °C 29.8 in /  1009.0 hPa NNE 1 mph /  1.6 km/h   70 % 0 in /  0.0 mm
01:00 36.7 °F /  2.6 °C 27.9 °F /  -2.3 °C 29.8 in /  1009.0 hPa Calm   1 mph /  1.6 km/h 70 % 0 in /  0.0 mm
01:05 36.7 °F /  2.6 °C 27.9 °F /  -2.3 °C 29.8 in /  1009.0 hPa Calm     70 % 0 in /  0.0 mm
01:10 36.5 °F /  2.5 °C 27.7 °F /  -2.4 °C 29.8 in /  1009.0 hPa South 1 mph /  1.6 km/h 2 mph /  3.2 km/h 70 % 0 in /  0.0 mm
01:20 36.5 °F /  2.5 °C 27.7 °F /  -2.4 °C 29.8 in /  1009.0 hPa Calm     70 % 0 in /  0.0 mm
01:25 36.5 °F /  2.5 °C 27.7 °F /  -2.4 °C 29.8 in /  1009.0 hPa Calm     70 % 0 in /  0.0 mm
01:45 37 °F /  2.8 °C 28.2 °F /  -2.1 °C 29.8 in /  1010.0 hPa West 1 mph /  1.6 km/h 2 mph /  3.2 km/h 70 % 0 in /  0.0 mm
01:55 36.7 °F /  2.6 °C 27.9 °F /  -2.3 °C 29.8 in /  1010.0 hPa Calm   2 mph /  3.2 km/h 70 % 0 in /  0.0 mm
02:00 37 °F /  2.8 °C 28.2 °F /  -2.1 °C 29.8 in /  1010.0 hPa Calm   2 mph /  3.2 km/h 70 % 0 in /  0.0 mm
02:05 37.9 °F /  3.3 °C 28.8 °F /  -1.8 °C 29.8 in /  1010.0 hPa WSW 2 mph /  3.2 km/h 2 mph /  3.2 km/h 69 % 0 in /  0.0 mm
02:15 39 °F /  3.9 °C 29.3 °F /  -1.5 °C 29.8 in /  1009.0 hPa ENE 1 mph /  1.6 km/h 1 mph /  1.6 km/h 68 % 0 in /  0.0 mm
02:20 38.8 °F /  3.8 °C 29.1 °F /  -1.6 °C 29.8 in /  1009.0 hPa NE 1 mph /  1.6 km/h 2 mph /  3.2 km/h 68 % 0 in /  0.0 mm
02:25 37.8 °F /  3.2 °C 27.9 °F /  -2.3 °C 29.8 in /  1009.0 hPa ENE 2 mph /  3.2 km/h 2 mph /  3.2 km/h 67 % 0 in /  0.0 mm
02:30 37.4 °F /  3.0 °C 27.3 °F /  -2.6 °C 29.8 in /  1010.0 hPa Calm   2 mph /  3.2 km/h 67 % 0 in /  0.0 mm
02:35 37 °F /  2.8 °C 27.1 °F /  -2.7 °C 29.8 in /  1010.0 hPa SSE 1 mph /  1.6 km/h 2 mph /  3.2 km/h 67 % 0 in /  0.0 mm
02:45 36.7 °F /  2.6 °C 26.8 °F /  -2.9 °C 29.8 in /  1010.0 hPa NW 1 mph /  1.6 km/h 1 mph /  1.6 km/h 67 % 0 in /  0.0 mm
02:50 36.5 °F /  2.5 °C 27 °F /  -2.8 °C 29.8 in /  1010.0 hPa Calm   1 mph /  1.6 km/h 68 % 0 in /  0.0 mm
02:55 36.7 °F /  2.6 °C 27.1 °F /  -2.7 °C 29.8 in /  1010.0 hPa Calm     68 % 0 in /  0.0 mm
03:00 36.9 °F /  2.7 °C 27.3 °F /  -2.6 °C 29.8 in /  1010.0 hPa WNW 1 mph /  1.6 km/h 2 mph /  3.2 km/h 68 % 0 in /  0.0 mm
03:05 36.9 °F /  2.7 °C 27.3 °F /  -2.6 °C 29.8 in /  1010.0 hPa Calm     68 % 0 in /  0.0 mm
03:10 37 °F /  2.8 °C 27.5 °F /  -2.5 °C 29.8 in /  1010.0 hPa WNW 1 mph /  1.6 km/h 1 mph /  1.6 km/h 68 % 0 in /  0.0 mm
03:20 37 °F /  2.8 °C 27.5 °F /  -2.5 °C 29.8 in /  1010.0 hPa Calm   1 mph /  1.6 km/h 68 % 0 in /  0.0 mm
03:25 36.7 °F /  2.6 °C 27.1 °F /  -2.7 °C 29.8 in /  1010.0 hPa Calm     68 % 0 in /  0.0 mm
03:30 36.9 °F /  2.7 °C 27.3 °F /  -2.6 °C 29.8 in /  1010.0 hPa Calm     68 % 0 in /  0.0 mm
03:35 37 °F /  2.8 °C 27.5 °F /  -2.5 °C 29.8 in /  1010.0 hPa Calm     68 % 0 in /  0.0 mm
03:40 37 °F /  2.8 °C 27.5 °F /  -2.5 °C 29.8 in /  1010.0 hPa Calm     68 % 0 in /  0.0 mm
03:45 36.7 °F /  2.6 °C 27.1 °F /  -2.7 °C 29.8 in /  1010.0 hPa NNW 1 mph /  1.6 km/h 1 mph /  1.6 km/h 68 % 0 in /  0.0 mm
03:50 36.7 °F /  2.6 °C 27.1 °F /  -2.7 °C 29.8 in /  1010.0 hPa NNW 1 mph /  1.6 km/h 2 mph /  3.2 km/h 68 % 0 in /  0.0 mm
03:55 36.7 °F /  2.6 °C 27.1 °F /  -2.7 °C 29.8 in /  1010.0 hPa North 3 mph /  4.8 km/h 3 mph /  4.8 km/h 68 % 0 in /  0.0 mm
04:00 36.7 °F /  2.6 °C 27.1 °F /  -2.7 °C 29.8 in /  1010.0 hPa NE 1 mph /  1.6 km/h 3 mph /  4.8 km/h 68 % 0 in /  0.0 mm
04:05 36.5 °F /  2.5 °C 27 °F /  -2.8 °C 29.8 in /  1010.0 hPa NNE 1 mph /  1.6 km/h 1 mph /  1.6 km/h 68 % 0 in /  0.0 mm
04:10 36.5 °F /  2.5 °C 27 °F /  -2.8 °C 29.8 in /  1010.0 hPa NE 1 mph /  1.6 km/h 1 mph /  1.6 km/h 68 % 0 in /  0.0 mm
04:15 36.3 °F /  2.4 °C 26.8 °F /  -2.9 °C 29.8 in /  1010.0 hPa NNE 2 mph /  3.2 km/h 2 mph /  3.2 km/h 68 % 0 in /  0.0 mm
04:20 36.3 °F /  2.4 °C 26.8 °F /  -2.9 °C 29.8 in /  1010.0 hPa North 2 mph /  3.2 km/h 2 mph /  3.2 km/h 68 % 0 in /  0.0 mm
04:25 36 °F /  2.2 °C 26.4 °F /  -3.1 °C 29.8 in /  1010.0 hPa NNE 1 mph /  1.6 km/h 2 mph /  3.2 km/h 68 % 0 in /  0.0 mm
04:30 36 °F /  2.2 °C 26.4 °F /  -3.1 °C 29.8 in /  1010.0 hPa NNE 1 mph /  1.6 km/h 2 mph /  3.2 km/h 68 % 0 in /  0.0 mm
04:35 35.8 °F /  2.1 °C 26.2 °F /  -3.2 °C 29.8 in /  1010.0 hPa NNE 1 mph /  1.6 km/h 1 mph /  1.6 km/h 68 % 0 in /  0.0 mm
04:40 35.8 °F /  2.1 °C 26.2 °F /  -3.2 °C 29.8 in /  1010.0 hPa NNE 1 mph /  1.6 km/h 1 mph /  1.6 km/h 68 % 0 in /  0.0 mm
04:45 35.6 °F /  2.0 °C 26.1 °F /  -3.3 °C 29.8 in /  1010.0 hPa North 2 mph /  3.2 km/h 2 mph /  3.2 km/h 68 % 0 in /  0.0 mm
04:50 35.4 °F /  1.9 °C 25.9 °F /  -3.4 °C 29.8 in /  1010.0 hPa NNW 1 mph /  1.6 km/h 2 mph /  3.2 km/h 68 % 0 in /  0.0 mm
04:55 35.4 °F /  1.9 °C 25.9 °F /  -3.4 °C 29.8 in /  1010.0 hPa NW 1 mph /  1.6 km/h 2 mph /  3.2 km/h 68 % 0 in /  0.0 mm
05:00 35.2 °F /  1.8 °C 25.7 °F /  -3.5 °C 29.8 in /  1010.0 hPa NW 1 mph /  1.6 km/h 1 mph /  1.6 km/h 68 % 0 in /  0.0 mm
05:05 35.2 °F /  1.8 °C 25.7 °F /  -3.5 °C 29.8 in /  1010.0 hPa Calm     68 % 0 in /  0.0 mm
05:10 35.1 °F /  1.7 °C 25.5 °F /  -3.6 °C 29.8 in /  1010.0 hPa West 1 mph /  1.6 km/h 1 mph /  1.6 km/h 68 % 0 in /  0.0 mm
05:15 34.7 °F /  1.5 °C 25.2 °F /  -3.8 °C 29.8 in /  1010.0 hPa West 2 mph /  3.2 km/h 2 mph /  3.2 km/h 68 % 0 in /  0.0 mm
05:20 34.7 °F /  1.5 °C 25.2 °F /  -3.8 °C 29.8 in /  1010.0 hPa West 2 mph /  3.2 km/h 2 mph /  3.2 km/h 68 % 0 in /  0.0 mm
05:25 34.3 °F /  1.3 °C 25 °F /  -3.9 °C 29.8 in /  1010.0 hPa Calm     68 % 0 in /  0.0 mm
05:30 34.3 °F /  1.3 °C 25 °F /  -3.9 °C 29.8 in /  1010.0 hPa Calm     68 % 0 in /  0.0 mm
05:35 34.3 °F /  1.3 °C 25.2 °F /  -3.8 °C 29.8 in /  1010.0 hPa Calm   2 mph /  3.2 km/h 69 % 0 in /  0.0 mm
05:40 34.3 °F /  1.3 °C 25.2 °F /  -3.8 °C 29.8 in /  1010.0 hPa Calm   2 mph /  3.2 km/h 69 % 0 in /  0.0 mm
05:45 34.5 °F /  1.4 °C 25.3 °F /  -3.7 °C 29.8 in /  1010.0 hPa NNW 1 mph /  1.6 km/h   69 % 0 in /  0.0 mm
05:50 34.5 °F /  1.4 °C 25.3 °F /  -3.7 °C 29.8 in /  1010.0 hPa NNW 1 mph /  1.6 km/h 2 mph /  3.2 km/h 69 % 0 in /  0.0 mm
05:55 34.3 °F /  1.3 °C 25.2 °F /  -3.8 °C 29.8 in /  1010.0 hPa WNW 1 mph /  1.6 km/h 1 mph /  1.6 km/h 69 % 0 in /  0.0 mm
06:00 34.3 °F /  1.3 °C 25.2 °F /  -3.8 °C 29.8 in /  1010.0 hPa NW 1 mph /  1.6 km/h 1 mph /  1.6 km/h 69 % 0 in /  0.0 mm
06:05 34.3 °F /  1.3 °C 25.2 °F /  -3.8 °C 29.8 in /  1010.0 hPa WNW 1 mph /  1.6 km/h   69 % 0 in /  0.0 mm
06:10 34.3 °F /  1.3 °C 25.2 °F /  -3.8 °C 29.8 in /  1010.0 hPa West 1 mph /  1.6 km/h   69 % 0 in /  0.0 mm
06:35 34.2 °F /  1.2 °C 24.6 °F /  -4.1 °C 29.8 in /  1009.0 hPa Calm   1 mph /  1.6 km/h 68 % 0 in /  0.0 mm
06:40 34.2 °F /  1.2 °C 24.6 °F /  -4.1 °C 29.8 in /  1009.0 hPa NNW 1 mph /  1.6 km/h 1 mph /  1.6 km/h 68 % 0 in /  0.0 mm
06:45 34 °F /  1.1 °C 24.4 °F /  -4.2 °C 29.8 in /  1010.0 hPa West 1 mph /  1.6 km/h 1 mph /  1.6 km/h 68 % 0 in /  0.0 mm
06:50 33.8 °F /  1.0 °C 24.4 °F /  -4.2 °C 29.8 in /  1010.0 hPa Calm   1 mph /  1.6 km/h 68 % 0 in /  0.0 mm
06:55 34 °F /  1.1 °C 24.4 °F /  -4.2 °C 29.8 in /  1010.0 hPa Calm   1 mph /  1.6 km/h 68 % 0 in /  0.0 mm
07:00 33.8 °F /  1.0 °C 24.4 °F /  -4.2 °C 29.8 in /  1010.0 hPa Calm     68 % 0 in /  0.0 mm
07:05 33.8 °F /  1.0 °C 24.4 °F /  -4.2 °C 29.8 in /  1010.0 hPa NW 1 mph /  1.6 km/h 1 mph /  1.6 km/h 68 % 0 in /  0.0 mm
07:10 33.4 °F /  0.8 °C 24.1 °F /  -4.4 °C 29.8 in /  1010.0 hPa West 1 mph /  1.6 km/h 2 mph /  3.2 km/h 68 % 0 in /  0.0 mm
07:15 33.4 °F /  0.8 °C 24.1 °F /  -4.4 °C 29.8 in /  1010.0 hPa West 1 mph /  1.6 km/h 2 mph /  3.2 km/h 68 % 0 in /  0.0 mm
07:20 33.3 °F /  0.7 °C 23.7 °F /  -4.6 °C 29.8 in /  1010.0 hPa Calm     68 % 0 in /  0.0 mm
07:35 33.3 °F /  0.7 °C 23.7 °F /  -4.6 °C 29.8 in /  1010.7 hPa WSW 1 mph /  1.6 km/h 1 mph /  1.6 km/h 68 % 0 in /  0.0 mm
07:40 33.4 °F /  0.8 °C 24.1 °F /  -4.4 °C 29.8 in /  1010.7 hPa Calm     68 % 0 in /  0.0 mm
07:45 33.4 °F /  0.8 °C 24.1 °F /  -4.4 °C 29.8 in /  1010.7 hPa Calm     68 % 0 in /  0.0 mm
07:50 33.4 °F /  0.8 °C 24.1 °F /  -4.4 °C 29.8 in /  1010.7 hPa Calm     68 % 0 in /  0.0 mm
07:55 33.4 °F /  0.8 °C 23.7 °F /  -4.6 °C 29.8 in /  1010.7 hPa Calm   2 mph /  3.2 km/h 67 % 0 in /  0.0 mm
08:00 33.4 °F /  0.8 °C 23.7 °F /  -4.6 °C 29.8 in /  1010.7 hPa Calm     67 % 0 in /  0.0 mm
08:05 33.3 °F /  0.7 °C 23.5 °F /  -4.7 °C 29.8 in /  1010.7 hPa WSW 1 mph /  1.6 km/h 2 mph /  3.2 km/h 67 % 0 in /  0.0 mm
08:10 33.3 °F /  0.7 °C 23.5 °F /  -4.7 °C 29.8 in /  1010.7 hPa Calm   1 mph /  1.6 km/h 67 % 0 in /  0.0 mm
08:15 33.1 °F /  0.6 °C 23.4 °F /  -4.8 °C 29.8 in /  1010.7 hPa NW 1 mph /  1.6 km/h 1 mph /  1.6 km/h 67 % 0 in /  0.0 mm
08:20 33.3 °F /  0.7 °C 23.5 °F /  -4.7 °C 29.9 in /  1011.7 hPa NW 1 mph /  1.6 km/h 2 mph /  3.2 km/h 67 % 0 in /  0.0 mm
08:30 34.2 °F /  1.2 °C 24.3 °F /  -4.3 °C 29.9 in /  1011.7 hPa NNW 1 mph /  1.6 km/h   67 % 0 in /  0.0 mm
08:35 34.7 °F /  1.5 °C 25 °F /  -3.9 °C 29.9 in /  1011.7 hPa Calm   1 mph /  1.6 km/h 67 % 0 in /  0.0 mm
08:40 34.9 °F /  1.6 °C 25 °F /  -3.9 °C 29.9 in /  1011.7 hPa Calm     67 % 0 in /  0.0 mm
08:45 34.5 °F /  1.4 °C 24.3 °F /  -4.3 °C 29.9 in /  1011.7 hPa West 1 mph /  1.6 km/h 1 mph /  1.6 km/h 66 % 0 in /  0.0 mm
08:50 35.2 °F /  1.8 °C 25.3 °F /  -3.7 °C 29.9 in /  1011.7 hPa Calm     67 % 0 in /  0.0 mm
09:00 36.3 °F /  2.4 °C 26.1 °F /  -3.3 °C 29.9 in /  1011.7 hPa NNW 1 mph /  1.6 km/h 3 mph /  4.8 km/h 66 % 0 in /  0.0 mm
09:05 37.6 °F /  3.1 °C 27 °F /  -2.8 °C 29.8 in /  1010.7 hPa NNW 1 mph /  1.6 km/h 1 mph /  1.6 km/h 65 % 0 in /  0.0 mm
09:10 37.6 °F /  3.1 °C 26.4 °F /  -3.1 °C 29.8 in /  1010.7 hPa North 2 mph /  3.2 km/h 2 mph /  3.2 km/h 64 % 0 in /  0.0 mm
09:15 37.9 °F /  3.3 °C 26.8 °F /  -2.9 °C 29.9 in /  1011.7 hPa NNE 2 mph /  3.2 km/h 2 mph /  3.2 km/h 64 % 0 in /  0.0 mm
09:20 37.9 °F /  3.3 °C 26.8 °F /  -2.9 °C 29.9 in /  1011.7 hPa NNE 2 mph /  3.2 km/h 2 mph /  3.2 km/h 64 % 0 in /  0.0 mm
09:25 38.3 °F /  3.5 °C 26.8 °F /  -2.9 °C 29.9 in /  1011.7 hPa NNW 1 mph /  1.6 km/h 2 mph /  3.2 km/h 63 % 0 in /  0.0 mm
09:30 38.3 °F /  3.5 °C 26.8 °F /  -2.9 °C 29.9 in /  1011.7 hPa North 1 mph /  1.6 km/h 2 mph /  3.2 km/h 63 % 0 in /  0.0 mm
09:35 39.9 °F /  4.4 °C 28.2 °F /  -2.1 °C 29.9 in /  1011.7 hPa Calm     63 % 0 in /  0.0 mm
09:40 39.9 °F /  4.4 °C 28.2 °F /  -2.1 °C 29.9 in /  1011.7 hPa Calm   1 mph /  1.6 km/h 63 % 0 in /  0.0 mm
09:45 40.1 °F /  4.5 °C 28 °F /  -2.2 °C 29.9 in /  1011.7 hPa ESE 1 mph /  1.6 km/h 2 mph /  3.2 km/h 62 % 0 in /  0.0 mm
09:50 40.1 °F /  4.5 °C 28 °F /  -2.2 °C 29.9 in /  1011.7 hPa SSE 1 mph /  1.6 km/h 2 mph /  3.2 km/h 62 % 0 in /  0.0 mm
09:55 39.9 °F /  4.4 °C 27.5 °F /  -2.5 °C 29.9 in /  1011.7 hPa Calm     61 % 0 in /  0.0 mm
10:00 39.9 °F /  4.4 °C 27.5 °F /  -2.5 °C 29.9 in /  1011.7 hPa Calm   4 mph /  6.4 km/h 61 % 0 in /  0.0 mm
10:05 40.8 °F /  4.9 °C 27.7 °F /  -2.4 °C 29.9 in /  1011.7 hPa NE 2 mph /  3.2 km/h 2 mph /  3.2 km/h 59 % 0 in /  0.0 mm
10:10 41.4 °F /  5.2 °C 28 °F /  -2.2 °C 29.9 in /  1011.7 hPa East 1 mph /  1.6 km/h 2 mph /  3.2 km/h 59 % 0 in /  0.0 mm
10:15 41.5 °F /  5.3 °C 28.2 °F /  -2.1 °C 29.9 in /  1011.7 hPa East 1 mph /  1.6 km/h 2 mph /  3.2 km/h 59 % 0 in /  0.0 mm
10:20 41.5 °F /  5.3 °C 28.2 °F /  -2.1 °C 29.9 in /  1011.7 hPa East 1 mph /  1.6 km/h 2 mph /  3.2 km/h 59 % 0 in /  0.0 mm
10:36 42.4 °F /  5.8 °C 28.2 °F /  -2.1 °C 29.9 in /  1012.8 hPa SW 2.3 mph /  3.7 km/h 2.3 mph /  3.7 km/h 57 % 0 in /  0.0 mm
10:41 42.4 °F /  5.8 °C 27.9 °F /  -2.3 °C 29.9 in /  1012.8 hPa WSW 1.4 mph /  2.3 km/h 1.4 mph /  2.3 km/h 56 % 0 in /  0.0 mm
10:46 43.3 °F /  6.3 °C 28.8 °F /  -1.8 °C 29.9 in /  1013.8 hPa ESE 2.4 mph /  3.9 km/h 2.4 mph /  3.9 km/h 56 % 0 in /  0.0 mm
10:51 43.5 °F /  6.4 °C 28.8 °F /  -1.8 °C 29.9 in /  1013.8 hPa North 2.3 mph /  3.7 km/h 2.3 mph /  3.7 km/h 56 % 0 in /  0.0 mm
10:56 43.3 °F /  6.3 °C 28.8 °F /  -1.8 °C 29.9 in /  1013.8 hPa East 2.3 mph /  3.7 km/h 2.3 mph /  3.7 km/h 56 % 0 in /  0.0 mm
11:01 44.1 °F /  6.7 °C 28.9 °F /  -1.7 °C 29.9 in /  1013.8 hPa East 2.3 mph /  3.7 km/h 2.3 mph /  3.7 km/h 55 % 0 in /  0.0 mm
11:06 44.2 °F /  6.8 °C 29.1 °F /  -1.6 °C 29.9 in /  1013.8 hPa ENE 3.5 mph /  5.6 km/h 3.5 mph /  5.6 km/h 55 % 0 in /  0.0 mm
11:16 43.7 °F /  6.5 °C 28.6 °F /  -1.9 °C 29.9 in /  1013.8 hPa ENE 3.5 mph /  5.6 km/h 3.5 mph /  5.6 km/h 55 % 0 in /  0.0 mm
11:26 44.6 °F /  7.0 °C 28.9 °F /  -1.7 °C 29.9 in /  1013.8 hPa ESE 3.5 mph /  5.6 km/h 3.5 mph /  5.6 km/h 54 % 0 in /  0.0 mm
11:31 45.1 °F /  7.3 °C 28.9 °F /  -1.7 °C 29.9 in /  1013.8 hPa SSE 3.8 mph /  6.1 km/h 3.8 mph /  6.1 km/h 53 % 0 in /  0.0 mm
11:36 45 °F /  7.2 °C 28.8 °F /  -1.8 °C 29.9 in /  1013.8 hPa ESE 2.3 mph /  3.7 km/h 2.3 mph /  3.7 km/h 53 % 0 in /  0.0 mm
11:41 45.9 °F /  7.7 °C 29.7 °F /  -1.3 °C 29.9 in /  1013.8 hPa South 2.3 mph /  3.7 km/h 2.3 mph /  3.7 km/h 53 % 0 in /  0.0 mm
11:46 45.7 °F /  7.6 °C 28.9 °F /  -1.7 °C 29.9 in /  1012.8 hPa ESE 4 mph /  6.4 km/h 4 mph /  6.4 km/h 52 % 0 in /  0.0 mm
11:51 45.9 °F /  7.7 °C 28.8 °F /  -1.8 °C 29.9 in /  1012.8 hPa NE 3.5 mph /  5.6 km/h 3.5 mph /  5.6 km/h 51 % 0 in /  0.0 mm
11:56 46.2 °F /  7.9 °C 29.1 °F /  -1.6 °C 29.9 in /  1012.8 hPa ENE 3.5 mph /  5.6 km/h 3.5 mph /  5.6 km/h 51 % 0 in /  0.0 mm
12:01 46.6 °F /  8.1 °C 28.9 °F /  -1.7 °C 29.9 in /  1011.7 hPa ESE 3.5 mph /  5.6 km/h 3.5 mph /  5.6 km/h 50 % 0 in /  0.0 mm
12:06 46.4 °F /  8.0 °C 28.2 °F /  -2.1 °C 29.9 in /  1011.7 hPa ESE 4.6 mph /  7.4 km/h 4.6 mph /  7.4 km/h 49 % 0 in /  0.0 mm
12:11 47.1 °F /  8.4 °C 29.5 °F /  -1.4 °C 29.9 in /  1011.7 hPa SSE 2 mph /  3.2 km/h   50 % 0 in /  0.0 mm
12:16 47.5 °F /  8.6 °C 29.3 °F /  -1.5 °C 29.9 in /  1011.7 hPa SSE 2.3 mph /  3.7 km/h 2.3 mph /  3.7 km/h 49 % 0 in /  0.0 mm
12:21 47.7 °F /  8.7 °C 29.5 °F /  -1.4 °C 29.9 in /  1011.7 hPa ESE 2.4 mph /  3.9 km/h 2.4 mph /  3.9 km/h 49 % 0 in /  0.0 mm
12:26 47.8 °F /  8.8 °C 29.7 °F /  -1.3 °C 29.9 in /  1011.7 hPa ENE 5.8 mph /  9.3 km/h 5.8 mph /  9.3 km/h 49 % 0 in /  0.0 mm
12:31 48.4 °F /  9.1 °C 29.7 °F /  -1.3 °C 29.9 in /  1011.7 hPa SSE 2.3 mph /  3.7 km/h 2.3 mph /  3.7 km/h 48 % 0 in /  0.0 mm
12:36 48.6 °F /  9.2 °C 29.7 °F /  -1.3 °C 29.9 in /  1011.7 hPa ESE 3.5 mph /  5.6 km/h 3.5 mph /  5.6 km/h 48 % 0 in /  0.0 mm
12:41 48.6 °F /  9.2 °C 29.7 °F /  -1.3 °C 29.9 in /  1011.7 hPa ENE 4.6 mph /  7.4 km/h 4.6 mph /  7.4 km/h 48 % 0 in /  0.0 mm
12:46 49.5 °F /  9.7 °C 30.6 °F /  -0.8 °C 29.9 in /  1011.7 hPa NNE 2.6 mph /  4.2 km/h 2.6 mph /  4.2 km/h 48 % 0 in /  0.0 mm
12:51 49.6 °F /  9.8 °C 29.7 °F /  -1.3 °C 29.9 in /  1011.7 hPa ESE 3.5 mph /  5.6 km/h 3.5 mph /  5.6 km/h 46 % 0 in /  0.0 mm
13:01 49.6 °F /  9.8 °C 29.1 °F /  -1.6 °C 29.9 in /  1011.7 hPa WSW 4.6 mph /  7.4 km/h 4.6 mph /  7.4 km/h 45 % 0 in /  0.0 mm
13:06 50.5 °F /  10.3 °C 30.9 °F /  -0.6 °C 29.9 in /  1011.7 hPa ENE 1.4 mph /  2.3 km/h 1.4 mph /  2.3 km/h 47 % 0 in /  0.0 mm
13:11 51.3 °F /  10.7 °C 32.2 °F /  0.1 °C 29.9 in /  1011.7 hPa NNW 5.8 mph /  9.3 km/h 5.8 mph /  9.3 km/h 48 % 0 in /  0.0 mm
13:16 51.1 °F /  10.6 °C 30.6 °F /  -0.8 °C 29.9 in /  1011.7 hPa ENE 3.5 mph /  5.6 km/h 3.5 mph /  5.6 km/h 45 % 0 in /  0.0 mm
13:21 51.3 °F /  10.7 °C 30.6 °F /  -0.8 °C 29.9 in /  1011.7 hPa South 3.5 mph /  5.6 km/h 3.5 mph /  5.6 km/h 45 % 0 in /  0.0 mm
13:26 51.8 °F /  11.0 °C 30 °F /  -1.1 °C 29.9 in /  1011.7 hPa NNW 3.5 mph /  5.6 km/h 3.5 mph /  5.6 km/h 43 % 0 in /  0.0 mm
13:31 52 °F /  11.1 °C 30.7 °F /  -0.7 °C 29.9 in /  1012.8 hPa West 2.3 mph /  3.7 km/h 2.3 mph /  3.7 km/h 44 % 0 in /  0.0 mm
13:36 52.2 °F /  11.2 °C 30.4 °F /  -0.9 °C 29.9 in /  1012.8 hPa WSW 4.3 mph /  6.9 km/h 4.3 mph /  6.9 km/h 43 % 0 in /  0.0 mm
13:41 52.3 °F /  11.3 °C 30.9 °F /  -0.6 °C 29.9 in /  1012.8 hPa SW 4.6 mph /  7.4 km/h 4.6 mph /  7.4 km/h 44 % 0 in /  0.0 mm
13:46 52.5 °F /  11.4 °C 30.6 °F /  -0.8 °C 29.9 in /  1011.7 hPa SW 2.3 mph /  3.7 km/h 2.3 mph /  3.7 km/h 43 % 0 in /  0.0 mm
13:51 52.7 °F /  11.5 °C 31.5 °F /  -0.3 °C 29.9 in /  1011.7 hPa West 4.6 mph /  7.4 km/h 4.6 mph /  7.4 km/h 44 % 0 in /  0.0 mm
13:56 52.9 °F /  11.6 °C 30.9 °F /  -0.6 °C 29.9 in /  1011.7 hPa WSW 3.5 mph /  5.6 km/h 3.5 mph /  5.6 km/h 43 % 0 in /  0.0 mm
14:01 52.7 °F /  11.5 °C 30.2 °F /  -1.0 °C 29.9 in /  1011.7 hPa ENE 2.4 mph /  3.9 km/h 2.4 mph /  3.9 km/h 42 % 0 in /  0.0 mm
14:06 52.5 °F /  11.4 °C 30 °F /  -1.1 °C 29.9 in /  1011.7 hPa WSW 3.5 mph /  5.6 km/h 3.5 mph /  5.6 km/h 42 % 0 in /  0.0 mm
14:11 52.7 °F /  11.5 °C 29.7 °F /  -1.3 °C 29.9 in /  1011.7 hPa WSW 5.8 mph /  9.3 km/h 5.8 mph /  9.3 km/h 41 % 0 in /  0.0 mm
14:16 52.7 °F /  11.5 °C 29.7 °F /  -1.3 °C 29.9 in /  1011.7 hPa NW 4.6 mph /  7.4 km/h 4.6 mph /  7.4 km/h 41 % 0 in /  0.0 mm
14:21 52.7 °F /  11.5 °C 29.7 °F /  -1.3 °C 29.9 in /  1011.7 hPa WNW 7.4 mph /  11.9 km/h 7.4 mph /  11.9 km/h 41 % 0 in /  0.0 mm
14:31 52.7 °F /  11.5 °C 28.4 °F /  -2.0 °C 29.9 in /  1011.7 hPa WSW 5.6 mph /  9.0 km/h 5.6 mph /  9.0 km/h 39 % 0 in /  0.0 mm
14:36 52.7 °F /  11.5 °C 27.9 °F /  -2.3 °C 29.9 in /  1011.7 hPa WSW 9.2 mph /  14.8 km/h 9.2 mph /  14.8 km/h 38 % 0 in /  0.0 mm
14:41 52.9 °F /  11.6 °C 27.9 °F /  -2.3 °C 29.9 in /  1011.7 hPa WSW 7.6 mph /  12.2 km/h 7.6 mph /  12.2 km/h 38 % 0 in /  0.0 mm
14:46 52.7 °F /  11.5 °C 27.1 °F /  -2.7 °C 29.9 in /  1011.7 hPa SW 4.9 mph /  7.9 km/h 4.9 mph /  7.9 km/h 37 % 0 in /  0.0 mm
15:01 53.6 °F /  12.0 °C 27.3 °F /  -2.6 °C 29.9 in /  1011.7 hPa SW 4.6 mph /  7.4 km/h 4.6 mph /  7.4 km/h 36 % 0 in /  0.0 mm
15:06 53.4 °F /  11.9 °C 27.1 °F /  -2.7 °C 29.9 in /  1011.7 hPa SW 9.2 mph /  14.8 km/h 9.2 mph /  14.8 km/h 36 % 0 in /  0.0 mm
15:21 53.1 °F /  11.7 °C 25.3 °F /  -3.7 °C 29.9 in /  1011.7 hPa West 4.6 mph /  7.4 km/h 4.6 mph /  7.4 km/h 34 % 0 in /  0.0 mm
15:26 53.2 °F /  11.8 °C 25.5 °F /  -3.6 °C 29.9 in /  1011.7 hPa West 3.6 mph /  5.8 km/h 3.6 mph /  5.8 km/h 34 % 0 in /  0.0 mm
15:31 53.1 °F /  11.7 °C 25.3 °F /  -3.7 °C 29.9 in /  1011.7 hPa WSW 3.5 mph /  5.6 km/h 3.5 mph /  5.6 km/h 34 % 0 in /  0.0 mm
15:36 53.2 °F /  11.8 °C 25.5 °F /  -3.6 °C 29.9 in /  1011.7 hPa West 2.4 mph /  3.9 km/h 2.6 mph /  4.2 km/h 34 % 0 in /  0.0 mm
15:41 53.1 °F /  11.7 °C 25.3 °F /  -3.7 °C 29.9 in /  1011.7 hPa West 4.6 mph /  7.4 km/h 4.6 mph /  7.4 km/h 34 % 0 in /  0.0 mm
15:46 53.1 °F /  11.7 °C 25.3 °F /  -3.7 °C 29.9 in /  1011.7 hPa West 3.5 mph /  5.6 km/h 3.5 mph /  5.6 km/h 34 % 0 in /  0.0 mm
15:51 52.9 °F /  11.6 °C 25.2 °F /  -3.8 °C 29.9 in /  1011.7 hPa West 2.6 mph /  4.2 km/h 2.6 mph /  4.2 km/h 34 % 0 in /  0.0 mm
16:01 52.5 °F /  11.4 °C 25 °F /  -3.9 °C 29.9 in /  1011.7 hPa West 5.8 mph /  9.3 km/h 5.8 mph /  9.3 km/h 34 % 0 in /  0.0 mm
16:06 52.2 °F /  11.2 °C 24.6 °F /  -4.1 °C 29.9 in /  1011.7 hPa WSW 9.2 mph /  14.8 km/h 9.2 mph /  14.8 km/h 34 % 0 in /  0.0 mm
16:16 51.6 °F /  10.9 °C 23.4 °F /  -4.8 °C 29.9 in /  1011.7 hPa WSW 3.6 mph /  5.8 km/h 3.6 mph /  5.8 km/h 33 % 0 in /  0.0 mm
16:21 51.6 °F /  10.9 °C 23.4 °F /  -4.8 °C 29.9 in /  1011.7 hPa West 5.8 mph /  9.3 km/h 5.8 mph /  9.3 km/h 33 % 0 in /  0.0 mm
16:26 51.4 °F /  10.8 °C 23.4 °F /  -4.8 °C 29.9 in /  1011.7 hPa WSW 3.5 mph /  5.6 km/h 3.5 mph /  5.6 km/h 33 % 0 in /  0.0 mm
16:36 50.4 °F /  10.2 °C 21.6 °F /  -5.8 °C 29.9 in /  1011.7 hPa West 5.8 mph /  9.3 km/h 5.9 mph /  9.5 km/h 32 % 0 in /  0.0 mm
16:41 50.4 °F /  10.2 °C 21.6 °F /  -5.8 °C 29.9 in /  1011.7 hPa SW 4.6 mph /  7.4 km/h 4.6 mph /  7.4 km/h 32 % 0 in /  0.0 mm
16:46 50 °F /  10.0 °C 21.4 °F /  -5.9 °C 29.9 in /  1012.8 hPa West 3.5 mph /  5.6 km/h 3.5 mph /  5.6 km/h 32 % 0 in /  0.0 mm
16:51 49.8 °F /  9.9 °C 21.7 °F /  -5.7 °C 29.9 in /  1012.8 hPa West 3.5 mph /  5.6 km/h 3.5 mph /  5.6 km/h 33 % 0 in /  0.0 mm
16:56 49.5 °F /  9.7 °C 21.6 °F /  -5.8 °C 29.9 in /  1012.8 hPa West 3.5 mph /  5.6 km/h 3.5 mph /  5.6 km/h 33 % 0 in /  0.0 mm
17:01 49.1 °F /  9.5 °C 21.2 °F /  -6.0 °C 29.9 in /  1011.7 hPa NW 4.6 mph /  7.4 km/h 4.6 mph /  7.4 km/h 33 % 0 in /  0.0 mm
17:11 48.2 °F /  9.0 °C 20.5 °F /  -6.4 °C 29.9 in /  1011.7 hPa WSW 5.8 mph /  9.3 km/h 5.8 mph /  9.3 km/h 33 % 0 in /  0.0 mm
17:16 47.8 °F /  8.8 °C 20.1 °F /  -6.6 °C 29.9 in /  1012.8 hPa West 2.3 mph /  3.7 km/h 2.3 mph /  3.7 km/h 33 % 0 in /  0.0 mm
17:21 47.3 °F /  8.5 °C 19.6 °F /  -6.9 °C 29.9 in /  1012.8 hPa NW 1.2 mph /  1.9 km/h   33 % 0 in /  0.0 mm
17:26 46.9 °F /  8.3 °C 19.2 °F /  -7.1 °C 29.9 in /  1012.8 hPa NW 1.2 mph /  1.9 km/h 1.4 mph /  2.3 km/h 33 % 0 in /  0.0 mm
17:31 46.6 °F /  8.1 °C 18.3 °F /  -7.6 °C 29.9 in /  1011.7 hPa Calm     32 % 0 in /  0.0 mm
17:42 45.9 °F /  7.7 °C 18.3 °F /  -7.6 °C 29.9 in /  1011.7 hPa WNW 2 mph /  3.2 km/h   33 % 0 in /  0.0 mm
17:47 45.7 °F /  7.6 °C 18.1 °F /  -7.7 °C 29.9 in /  1011.7 hPa WNW 1.2 mph /  1.9 km/h 1.2 mph /  1.9 km/h 33 % 0 in /  0.0 mm
17:52 45.3 °F /  7.4 °C 18 °F /  -7.8 °C 29.9 in /  1011.7 hPa WSW 1.2 mph /  1.9 km/h   33 % 0 in /  0.0 mm
17:57 45.1 °F /  7.3 °C 17.8 °F /  -7.9 °C 29.9 in /  1011.7 hPa Calm     33 % 0 in /  0.0 mm
18:07 44.6 °F /  7.0 °C 17.2 °F /  -8.2 °C 29.9 in /  1012.8 hPa Calm     33 % 0 in /  0.0 mm
18:12 44.4 °F /  6.9 °C 17.1 °F /  -8.3 °C 29.9 in /  1012.8 hPa Calm     33 % 0 in /  0.0 mm
18:17 44.1 °F /  6.7 °C 16.9 °F /  -8.4 °C 29.9 in /  1012.8 hPa WSW 2.3 mph /  3.7 km/h 2.3 mph /  3.7 km/h 33 % 0 in /  0.0 mm
18:22 43.9 °F /  6.6 °C 16.5 °F /  -8.6 °C 29.9 in /  1012.8 hPa NW 1.2 mph /  1.9 km/h 1.2 mph /  1.9 km/h 33 % 0 in /  0.0 mm
18:27 43.5 °F /  6.4 °C 16.3 °F /  -8.7 °C 29.9 in /  1012.8 hPa Calm     33 % 0 in /  0.0 mm
18:32 43.3 °F /  6.3 °C 16.2 °F /  -8.8 °C 29.9 in /  1012.8 hPa NW 1.2 mph /  1.9 km/h   33 % 0 in /  0.0 mm
18:37 43.3 °F /  6.3 °C 16.2 °F /  -8.8 °C 29.9 in /  1012.8 hPa Calm     33 % 0 in /  0.0 mm
18:42 43.2 °F /  6.2 °C 16 °F /  -8.9 °C 29.9 in /  1012.8 hPa Calm     33 % 0 in /  0.0 mm
18:52 43.2 °F /  6.2 °C 16 °F /  -8.9 °C 29.9 in /  1013.8 hPa NNE 2.3 mph /  3.7 km/h 2.3 mph /  3.7 km/h 33 % 0 in /  0.0 mm
18:57 43.3 °F /  6.3 °C 16.2 °F /  -8.8 °C 29.9 in /  1013.8 hPa East 2.3 mph /  3.7 km/h 2.4 mph /  3.9 km/h 33 % 0 in /  0.0 mm
19:02 43.7 °F /  6.5 °C 16.3 °F /  -8.7 °C 29.9 in /  1013.8 hPa SW 2.3 mph /  3.7 km/h 2.3 mph /  3.7 km/h 33 % 0 in /  0.0 mm
19:07 43.3 °F /  6.3 °C 16.2 °F /  -8.8 °C 29.9 in /  1013.8 hPa Calm     33 % 0 in /  0.0 mm
19:12 43.2 °F /  6.2 °C 16 °F /  -8.9 °C 29.9 in /  1013.8 hPa SE 2.3 mph /  3.7 km/h 2.3 mph /  3.7 km/h 33 % 0 in /  0.0 mm
19:17 43.2 °F /  6.2 °C 16 °F /  -8.9 °C 29.9 in /  1013.8 hPa SSE 1.2 mph /  1.9 km/h   33 % 0 in /  0.0 mm
19:27 42.4 °F /  5.8 °C 15.3 °F /  -9.3 °C 29.9 in /  1013.8 hPa West 1.2 mph /  1.9 km/h   33 % 0 in /  0.0 mm
19:32 42.1 °F /  5.6 °C 15.1 °F /  -9.4 °C 29.9 in /  1013.8 hPa West 1.2 mph /  1.9 km/h 1.4 mph /  2.3 km/h 33 % 0 in /  0.0 mm
19:37 41.7 °F /  5.4 °C 14.7 °F /  -9.6 °C 29.9 in /  1013.8 hPa WSW 2.3 mph /  3.7 km/h 2.3 mph /  3.7 km/h 33 % 0 in /  0.0 mm
19:42 41.4 °F /  5.2 °C 14.4 °F /  -9.8 °C 29.9 in /  1013.8 hPa WSW 1.2 mph /  1.9 km/h 1.2 mph /  1.9 km/h 33 % 0 in /  0.0 mm
19:47 41.2 °F /  5.1 °C 14.2 °F /  -9.9 °C 30 in /  1014.8 hPa West 1.2 mph /  1.9 km/h 1.2 mph /  1.9 km/h 33 % 0 in /  0.0 mm
19:52 41.2 °F /  5.1 °C 14.2 °F /  -9.9 °C 30 in /  1014.8 hPa West 1.4 mph /  2.3 km/h 1.4 mph /  2.3 km/h 33 % 0 in /  0.0 mm
20:02 41.7 °F /  5.4 °C 14.7 °F /  -9.6 °C 29.9 in /  1013.8 hPa WNW 1.4 mph /  2.3 km/h 1.4 mph /  2.3 km/h 33 % 0 in /  0.0 mm
20:07 41.4 °F /  5.2 °C 15.1 °F /  -9.4 °C 29.9 in /  1013.8 hPa WSW 1.2 mph /  1.9 km/h   34 % 0 in /  0.0 mm
20:12 41 °F /  5.0 °C 14.7 °F /  -9.6 °C 29.9 in /  1013.8 hPa WSW 1.2 mph /  1.9 km/h 1.2 mph /  1.9 km/h 34 % 0 in /  0.0 mm
20:17 40.3 °F /  4.6 °C 14.2 °F /  -9.9 °C 29.9 in /  1013.8 hPa WSW 1.6 mph /  2.6 km/h 1.6 mph /  2.6 km/h 34 % 0 in /  0.0 mm
20:22 40.3 °F /  4.6 °C 14.2 °F /  -9.9 °C 29.9 in /  1013.8 hPa Calm     34 % 0 in /  0.0 mm
20:27 40.3 °F /  4.6 °C 14.2 °F /  -9.9 °C 29.9 in /  1013.8 hPa Calm     34 % 0 in /  0.0 mm
20:32 41.2 °F /  5.1 °C 14.9 °F /  -9.5 °C 29.9 in /  1013.8 hPa West 2.3 mph /  3.7 km/h 2.3 mph /  3.7 km/h 34 % 0 in /  0.0 mm
20:37 41.2 °F /  5.1 °C 14.9 °F /  -9.5 °C 29.9 in /  1013.8 hPa Calm     34 % 0 in /  0.0 mm
20:38 41.2 °F /  5.1 °C 14.9 °F /  -9.5 °C 29.9 in /  1013.8 hPa West 1.2 mph /  1.9 km/h   34 % 0 in /  0.0 mm
20:48 41.4 °F /  5.2 °C 15.1 °F /  -9.4 °C 29.9 in /  1013.8 hPa ENE 3.1 mph /  5.0 km/h   34 % 0 in /  0.0 mm
20:53 41.4 °F /  5.2 °C 15.6 °F /  -9.1 °C 29.9 in /  1013.8 hPa NE 2.3 mph /  3.7 km/h   35 % 0 in /  0.0 mm
20:58 41.5 °F /  5.3 °C 16 °F /  -8.9 °C 29.9 in /  1013.8 hPa ENE 3.5 mph /  5.6 km/h 3.5 mph /  5.6 km/h 35 % 0 in /  0.0 mm
21:03 41.5 °F /  5.3 °C 16.5 °F /  -8.6 °C 29.9 in /  1013.8 hPa SSE 3.5 mph /  5.6 km/h 3.5 mph /  5.6 km/h 36 % 0 in /  0.0 mm
21:13 42.6 °F /  5.9 °C 17.4 °F /  -8.1 °C 29.9 in /  1013.8 hPa NNE 4.6 mph /  7.4 km/h 4.6 mph /  7.4 km/h 36 % 0 in /  0.0 mm
21:18 42.1 °F /  5.6 °C 17.1 °F /  -8.3 °C 29.9 in /  1013.8 hPa NNW 2.4 mph /  3.9 km/h 2.4 mph /  3.9 km/h 36 % 0 in /  0.0 mm
21:23 41.4 °F /  5.2 °C 16.3 °F /  -8.7 °C 29.9 in /  1013.8 hPa East 2.9 mph /  4.7 km/h 2.9 mph /  4.7 km/h 36 % 0 in /  0.0 mm
21:28 41 °F /  5.0 °C 16 °F /  -8.9 °C 29.9 in /  1013.8 hPa NNE 2.3 mph /  3.7 km/h 2.3 mph /  3.7 km/h 36 % 0 in /  0.0 mm
21:33 40.3 °F /  4.6 °C 15.4 °F /  -9.2 °C 29.9 in /  1012.8 hPa ESE 3.5 mph /  5.6 km/h 3.5 mph /  5.6 km/h 36 % 0 in /  0.0 mm
21:39 40.1 °F /  4.5 °C 15.3 °F /  -9.3 °C 29.9 in /  1012.8 hPa ESE 2.3 mph /  3.7 km/h 2.3 mph /  3.7 km/h 36 % 0 in /  0.0 mm
21:44 39.7 °F /  4.3 °C 14.9 °F /  -9.5 °C 29.9 in /  1012.8 hPa SE 1.2 mph /  1.9 km/h   36 % 0 in /  0.0 mm
21:54 38.8 °F /  3.8 °C 14.2 °F /  -9.9 °C 29.9 in /  1012.8 hPa NNE 3.5 mph /  5.6 km/h 3.5 mph /  5.6 km/h 36 % 0 in /  0.0 mm
21:59 38.7 °F /  3.7 °C 14 °F /  -10.0 °C 29.9 in /  1012.8 hPa ENE 3.1 mph /  5.0 km/h 3.1 mph /  5.0 km/h 36 % 0 in /  0.0 mm
22:04 38.8 °F /  3.8 °C 14.7 °F /  -9.6 °C 29.9 in /  1013.8 hPa NNE 3.5 mph /  5.6 km/h 3.5 mph /  5.6 km/h 37 % 0 in /  0.0 mm
22:09 38.8 °F /  3.8 °C 14.7 °F /  -9.6 °C 29.9 in /  1013.8 hPa ENE 1.2 mph /  1.9 km/h   37 % 0 in /  0.0 mm
22:14 39 °F /  3.9 °C 14.9 °F /  -9.5 °C 29.9 in /  1013.8 hPa ENE 2.3 mph /  3.7 km/h 2.3 mph /  3.7 km/h 37 % 0 in /  0.0 mm
22:19 38.8 °F /  3.8 °C 14.7 °F /  -9.6 °C 29.9 in /  1013.8 hPa ESE 2 mph /  3.2 km/h 2 mph /  3.2 km/h 37 % 0 in /  0.0 mm
22:24 39 °F /  3.9 °C 15.4 °F /  -9.2 °C 29.9 in /  1013.8 hPa East 2.3 mph /  3.7 km/h 2.3 mph /  3.7 km/h 38 % 0 in /  0.0 mm
22:39 38.1 °F /  3.4 °C 14.7 °F /  -9.6 °C 30 in /  1014.8 hPa NE 3.5 mph /  5.6 km/h 3.5 mph /  5.6 km/h 38 % 0 in /  0.0 mm
22:49 37.9 °F /  3.3 °C 15.1 °F /  -9.4 °C 29.9 in /  1013.8 hPa WSW 1.2 mph /  1.9 km/h 1.2 mph /  1.9 km/h 39 % 0 in /  0.0 mm
23:04 38.8 °F /  3.8 °C 16.5 °F /  -8.6 °C 29.9 in /  1013.8 hPa WNW 3.1 mph /  5.0 km/h 3.1 mph /  5.0 km/h 40 % 0 in /  0.0 mm
23:09 39.4 °F /  4.1 °C 17.6 °F /  -8.0 °C 29.9 in /  1013.8 hPa WSW 3.5 mph /  5.6 km/h 3.5 mph /  5.6 km/h 41 % 0 in /  0.0 mm
23:19 39.7 °F /  4.3 °C 18.5 °F /  -7.5 °C 29.9 in /  1013.8 hPa WSW 1.6 mph /  2.6 km/h 1.6 mph /  2.6 km/h 42 % 0 in /  0.0 mm
23:24 39.7 °F /  4.3 °C 18.5 °F /  -7.5 °C 29.9 in /  1013.8 hPa WNW 2.3 mph /  3.7 km/h 2.3 mph /  3.7 km/h 42 % 0 in /  0.0 mm
23:34 39.7 °F /  4.3 °C 19 °F /  -7.2 °C 29.9 in /  1013.8 hPa NW 2.3 mph /  3.7 km/h 2.3 mph /  3.7 km/h 43 % 0 in /  0.0 mm
23:39 39.7 °F /  4.3 °C 19.6 °F /  -6.9 °C 29.9 in /  1013.8 hPa ENE 2.3 mph /  3.7 km/h 2.3 mph /  3.7 km/h 44 % 0 in /  0.0 mm
23:49 39.9 °F /  4.4 °C 19.8 °F /  -6.8 °C 29.9 in /  1012.8 hPa WSW 4.6 mph /  7.4 km/h 4.6 mph /  7.4 km/h 44 % 0 in /  0.0 mm
23:55 39.7 °F /  4.3 °C 20.1 °F /  -6.6 °C 29.9 in /  1012.8 hPa West 2.3 mph /  3.7 km/h 2.3 mph /  3.7 km/h 45 % 0 in /  0.0 mm
Meteo Sesrovires
Elogis d' Weather Underground - 3.75 mb

Guio original per  Jim McMurry - jmcmurry@mwt.net Adaptat per a la plantilla per  Wim van der Kuil - Leuven-Template.eu

Trobareu la nostra informacio del temps tambe a:

Weather Underground

AWEKAS